Time;durP1;ratioP1;P1;durP2;ratioP2;P2;SDS_P1;SDS_P2;PMS_P1;PMS_P2;Temp;Humidity;BMP_temperature;BMP_pressure;BME280_temperature;BME280_humidity;BME280_pressure;Samples;Min_cycle;Max_cycle;Signal;HPM_P1;HPM_P2
2022/01/15 00:02:06;;;;;;;22.38;11.75;;;;;;;;;;5093211;28;20032;-61
2022/01/15 00:04:32;;;;;;;27.02;12.68;;;;;;;;;;5093212;28;20028;-60
2022/01/15 00:06:58;;;;;;;26.60;12.98;;;;;;;;;;5093531;28;20024;-61
2022/01/15 00:09:24;;;;;;;19.23;9.82;;;;;;;;;;5093121;28;20020;-62
2022/01/15 00:11:52;;;;;;;23.58;10.45;;;;;;;;;;5093388;28;20032;-62
2022/01/15 00:14:28;;;;;;;19.88;9.68;;;;;;;;;;5093346;28;20031;-62
2022/01/15 00:17:06;;;;;;;16.20;8.73;;;;;;;;;;5093535;28;20017;-62
2022/01/15 00:19:43;;;;;;;19.08;9.60;;;;;;;;;;5093440;28;20465;-61
2022/01/15 00:22:13;;;;;;;18.25;9.10;;;;;;;;;;5077072;28;20043;-60
2022/01/15 00:24:40;;;;;;;21.13;10.80;;;;;;;;;;5097240;28;20025;-61
2022/01/15 00:27:06;;;;;;;19.77;9.30;;;;;;;;;;5097207;28;20076;-61
2022/01/15 00:29:32;;;;;;;19.98;9.48;;;;;;;;;;5096986;28;20024;-60
2022/01/15 00:31:59;;;;;;;20.27;9.95;;;;;;;;;;5097147;28;20028;-61
2022/01/15 00:34:26;;;;;;;28.25;12.13;;;;;;;;;;5078784;28;20095;-61
2022/01/15 00:36:52;;;;;;;27.92;14.13;;;;;;;;;;5097124;28;20055;-61
2022/01/15 00:39:18;;;;;;;39.20;18.08;;;;;;;;;;5096699;28;20512;-60
2022/01/15 00:41:44;;;;;;;25.58;13.20;;;;;;;;;;5096876;28;20035;-61
2022/01/15 00:47:14;;;;;;;30.13;14.15;;;;;;;;;;5096892;28;20084;-61
2022/01/15 00:49:40;;;;;;;26.67;12.63;;;;;;;;;;5096866;28;20039;-61
2022/01/15 00:52:06;;;;;;;27.83;13.10;;;;;;;;;;5096433;28;20028;-61
2022/01/15 00:54:32;;;;;;;25.85;12.35;;;;;;;;;;5096687;28;20028;-60
2022/01/15 00:56:58;;;;;;;28.50;12.48;;;;;;;;;;5096478;28;20048;-61
2022/01/15 00:59:25;;;;;;;23.70;12.88;;;;;;;;;;5096599;28;20453;-61
2022/01/15 01:01:51;;;;;;;26.75;13.02;;;;;;;;;;5096103;28;20491;-61
2022/01/15 01:04:17;;;;;;;22.67;11.82;;;;;;;;;;5096485;28;20479;-60
2022/01/15 01:06:43;;;;;;;21.92;11.98;;;;;;;;;;5096375;28;20024;-61
2022/01/15 01:09:09;;;;;;;26.38;12.73;;;;;;;;;;5096144;28;20016;-61
2022/01/15 01:11:51;;;;;;;26.80;12.98;;;;;;;;;;5096237;28;20028;-61
2022/01/15 01:20:11;;;;;;;25.90;12.48;;;;;;;;;;5040776;28;20478;-60
2022/01/15 01:22:54;;;;;;;25.60;12.13;;;;;;;;;;5096003;28;20043;-61
2022/01/15 01:25:21;;;;;;;29.20;13.43;;;;;;;;;;5095961;28;20486;-60
2022/01/15 01:27:52;;;;;;;26.02;12.18;;;;;;;;;;5095481;28;20020;-60
2022/01/15 01:30:26;;;;;;;25.85;11.90;;;;;;;;;;5096073;28;20035;-61
2022/01/15 01:32:58;;;;;;;24.13;11.65;;;;;;;;;;5095054;28;20028;-61
2022/01/15 01:38:05;;;;;;;25.90;12.38;;;;;;;;;;5096200;28;20032;-60
2022/01/15 01:40:38;;;;;;;25.83;13.07;;;;;;;;;;5095465;28;20042;-59
2022/01/15 01:43:41;;;;;;;25.67;12.85;;;;;;;;;;5095608;28;20089;-60
2022/01/15 01:46:12;;;;;;;30.15;12.80;;;;;;;;;;5094749;28;20025;-60
2022/01/15 01:48:38;;;;;;;24.20;12.38;;;;;;;;;;5095460;28;20338;-60
2022/01/15 01:51:08;;;;;;;26.27;13.30;;;;;;;;;;5095418;28;20046;-59
2022/01/15 01:53:38;;;;;;;27.38;12.65;;;;;;;;;;5095637;28;20104;-60
2022/01/15 01:56:04;;;;;;;25.40;12.20;;;;;;;;;;5094922;28;20022;-62
2022/01/15 01:58:31;;;;;;;24.23;11.40;;;;;;;;;;5096009;28;20052;-61
2022/01/15 02:00:57;;;;;;;24.83;12.57;;;;;;;;;;5095114;28;20468;-60
2022/01/15 02:03:23;;;;;;;22.58;12.10;;;;;;;;;;5094725;28;20012;-60
2022/01/15 02:05:49;;;;;;;21.92;10.57;;;;;;;;;;5094999;28;20385;-60
2022/01/15 02:08:16;;;;;;;17.63;8.93;;;;;;;;;;5095053;28;20028;-60
2022/01/15 02:10:43;;;;;;;16.30;8.75;;;;;;;;;;5094664;28;20024;-60
2022/01/15 02:13:10;;;;;;;17.42;8.32;;;;;;;;;;5076988;28;20024;-61
2022/01/15 02:15:36;;;;;;;14.25;6.65;;;;;;;;;;5094752;28;20024;-61
2022/01/15 02:18:03;;;;;;;15.40;6.15;;;;;;;;;;5095293;28;20127;-60
2022/01/15 02:25:47;;;;;;;15.13;6.85;;;;;;;;;;5095362;28;20055;-61
2022/01/15 02:28:13;;;;;;;12.48;7.13;;;;;;;;;;5094721;28;20028;-61
2022/01/15 02:30:39;;;;;;;13.43;7.30;;;;;;;;;;5094610;28;20430;-61
2022/01/15 02:33:06;;;;;;;15.63;7.38;;;;;;;;;;5094765;28;20028;-61
2022/01/15 02:35:33;;;;;;;12.07;7.07;;;;;;;;;;5094804;28;20024;-61
2022/01/15 02:38:03;;;;;;;15.60;7.78;;;;;;;;;;5094847;28;20027;-61
2022/01/15 02:40:32;;;;;;;18.17;8.37;;;;;;;;;;5094544;28;20099;-61
2022/01/15 02:43:03;;;;;;;14.93;7.57;;;;;;;;;;5094730;28;20024;-61
2022/01/15 02:45:30;;;;;;;13.43;6.05;;;;;;;;;;5093715;28;20024;-61
2022/01/15 02:48:02;;;;;;;15.30;7.63;;;;;;;;;;5094344;28;20477;-60
2022/01/15 02:50:28;;;;;;;17.42;8.10;;;;;;;;;;5094310;28;20024;-61
2022/01/15 02:52:54;;;;;;;17.20;8.88;;;;;;;;;;5094255;28;20372;-61
2022/01/15 02:55:21;;;;;;;15.70;8.65;;;;;;;;;;5094192;28;20376;-61
2022/01/15 02:57:47;;;;;;;18.48;8.68;;;;;;;;;;5094225;28;20116;-61
2022/01/15 03:00:13;;;;;;;19.80;8.90;;;;;;;;;;5094451;28;20024;-61
2022/01/15 03:02:40;;;;;;;16.58;7.63;;;;;;;;;;5093957;28;20024;-61
2022/01/15 03:05:06;;;;;;;20.88;8.45;;;;;;;;;;5093769;28;20099;-60
2022/01/15 03:07:34;;;;;;;15.48;8.20;;;;;;;;;;5094313;28;20027;-61
2022/01/15 03:10:00;;;;;;;14.32;7.85;;;;;;;;;;5094247;28;20106;-60
2022/01/15 03:12:26;;;;;;;24.25;11.18;;;;;;;;;;5093439;28;20024;-60
2022/01/15 03:14:55;;;;;;;21.52;9.27;;;;;;;;;;5094478;28;20023;-62
2022/01/15 03:17:21;;;;;;;12.40;6.40;;;;;;;;;;5093689;28;20020;-61
2022/01/15 03:19:48;;;;;;;16.92;8.43;;;;;;;;;;5093645;28;20031;-61
2022/01/15 03:22:14;;;;;;;16.98;7.75;;;;;;;;;;5094040;28;20028;-61
2022/01/15 03:24:40;;;;;;;13.63;7.53;;;;;;;;;;5094199;28;20024;-61
2022/01/15 03:27:06;;;;;;;16.30;7.90;;;;;;;;;;5093403;28;20212;-61
2022/01/15 03:29:32;;;;;;;13.98;7.45;;;;;;;;;;5093615;28;20033;-62
2022/01/15 03:31:59;;;;;;;17.63;8.15;;;;;;;;;;5094474;28;20467;-62
2022/01/15 03:34:25;;;;;;;18.17;8.63;;;;;;;;;;5093523;28;20105;-61
2022/01/15 03:36:51;;;;;;;11.88;6.78;;;;;;;;;;5093891;28;20080;-61
2022/01/15 03:39:17;;;;;;;13.65;7.28;;;;;;;;;;5093767;28;20024;-61
2022/01/15 03:41:44;;;;;;;13.93;7.18;;;;;;;;;;5093636;28;20059;-61
2022/01/15 03:44:10;;;;;;;13.30;7.35;;;;;;;;;;5093468;28;20472;-62
2022/01/15 03:46:37;;;;;;;12.43;6.50;;;;;;;;;;5093434;28;20024;-61
2022/01/15 03:49:03;;;;;;;16.63;8.18;;;;;;;;;;5093444;28;20026;-60
2022/01/15 03:51:29;;;;;;;15.05;7.18;;;;;;;;;;5093407;28;20024;-61
2022/01/15 03:53:55;;;;;;;16.23;7.30;;;;;;;;;;5093116;28;20024;-61
2022/01/15 03:56:21;;;;;;;15.38;7.65;;;;;;;;;;5094208;28;20020;-61
2022/01/15 03:58:47;;;;;;;20.40;7.78;;;;;;;;;;5097635;28;20048;-60
2022/01/15 04:01:14;;;;;;;15.57;7.80;;;;;;;;;;5097077;28;20028;-61
2022/01/15 04:03:40;;;;;;;19.33;7.65;;;;;;;;;;5097397;28;20024;-61
2022/01/15 04:06:06;;;;;;;15.32;7.40;;;;;;;;;;5097658;28;20436;-61
2022/01/15 04:08:32;;;;;;;14.25;7.30;;;;;;;;;;5097034;28;20024;-60
2022/01/15 04:10:58;;;;;;;12.48;7.60;;;;;;;;;;5097665;28;20024;-61
2022/01/15 04:13:25;;;;;;;15.35;7.50;;;;;;;;;;5097759;28;20024;-61
2022/01/15 04:15:53;;;;;;;16.17;7.38;;;;;;;;;;5097201;28;20027;-60
2022/01/15 04:18:20;;;;;;;16.90;8.10;;;;;;;;;;5097475;28;20016;-60
2022/01/15 04:20:47;;;;;;;14.95;7.75;;;;;;;;;;5097408;28;20020;-61
2022/01/15 04:23:13;;;;;;;16.15;8.10;;;;;;;;;;5096923;28;20032;-61
2022/01/15 04:25:40;;;;;;;18.05;8.60;;;;;;;;;;5097232;28;20043;-60
2022/01/15 04:28:11;;;;;;;13.73;7.60;;;;;;;;;;5096506;28;20085;-60
2022/01/15 04:30:40;;;;;;;;;;;;;;;;;;5096321;28;20020;-61
2022/01/15 04:33:06;;;;;;;18.52;8.00;;;;;;;;;;5097007;28;19911;-61
2022/01/15 04:35:32;;;;;;;19.10;9.30;;;;;;;;;;5096718;28;20026;-61
2022/01/15 04:38:07;;;;;;;19.58;9.27;;;;;;;;;;5096810;28;20081;-61
2022/01/15 04:40:33;;;;;;;21.60;10.07;;;;;;;;;;5097059;28;20099;-61
2022/01/15 04:42:59;;;;;;;18.58;9.20;;;;;;;;;;5096481;28;20388;-60
2022/01/15 04:45:25;;;;;;;18.17;9.13;;;;;;;;;;5096636;28;20020;-60
2022/01/15 04:47:51;;;;;;;20.38;8.85;;;;;;;;;;5096839;28;20145;-60
2022/01/15 04:50:18;;;;;;;17.35;9.48;;;;;;;;;;5096488;28;20024;-60
2022/01/15 04:52:45;;;;;;;22.13;10.05;;;;;;;;;;5096575;28;20561;-61
2022/01/15 04:55:11;;;;;;;24.00;10.85;;;;;;;;;;5096394;28;20056;-60
2022/01/15 04:57:38;;;;;;;21.20;9.85;;;;;;;;;;5096304;28;20075;-61
2022/01/15 05:00:06;;;;;;;17.10;9.60;;;;;;;;;;5096445;28;20020;-59
2022/01/15 05:02:32;;;;;;;16.65;9.40;;;;;;;;;;5096498;28;20035;-62
2022/01/15 05:04:58;;;;;;;21.60;9.88;;;;;;;;;;5095876;28;20034;-61
2022/01/15 05:07:24;;;;;;;18.67;9.95;;;;;;;;;;5095899;28;20017;-61
2022/01/15 05:09:50;;;;;;;19.52;9.85;;;;;;;;;;5096151;28;20030;-60
2022/01/15 05:14:52;;;;;;;18.60;9.80;;;;;;;;;;5096479;28;20035;-60
2022/01/15 05:17:18;;;;;;;18.92;9.95;;;;;;;;;;5096283;28;20024;-57
2022/01/15 05:19:44;;;;;;;18.33;8.65;;;;;;;;;;5078107;28;20028;-61
2022/01/15 05:22:11;;;;;;;19.83;9.77;;;;;;;;;;5096147;28;20074;-60
2022/01/15 05:24:37;;;;;;;19.10;10.15;;;;;;;;;;5095931;28;20024;-61
2022/01/15 05:27:03;;;;;;;18.27;9.75;;;;;;;;;;5095886;28;20016;-61
2022/01/15 05:29:29;;;;;;;17.58;9.70;;;;;;;;;;5096240;28;20016;-62
2022/01/15 05:31:55;;;;;;;16.80;9.25;;;;;;;;;;5095669;28;20028;-61
2022/01/15 05:34:21;;;;;;;21.00;9.75;;;;;;;;;;5096225;28;20024;-61
2022/01/15 05:36:48;;;;;;;15.68;9.25;;;;;;;;;;5095918;28;20449;-59
2022/01/15 05:39:14;;;;;;;18.35;9.90;;;;;;;;;;5095593;28;20032;-61
2022/01/15 05:41:40;;;;;;;19.65;9.88;;;;;;;;;;5095499;28;20032;-61
2022/01/15 05:44:06;;;;;;;20.50;10.40;;;;;;;;;;5095828;28;20020;-61
2022/01/15 05:46:36;;;;;;;21.27;10.50;;;;;;;;;;5095204;28;20454;-60
2022/01/15 05:49:04;;;;;;;21.20;10.20;;;;;;;;;;5095411;28;20392;-63
2022/01/15 05:51:31;;;;;;;18.92;9.82;;;;;;;;;;5095592;28;20039;-61
2022/01/15 05:54:01;;;;;;;21.38;11.13;;;;;;;;;;5095379;28;20107;-61
2022/01/15 05:56:27;;;;;;;19.45;10.32;;;;;;;;;;5095518;28;20020;-60
2022/01/15 05:58:54;;;;;;;17.45;9.82;;;;;;;;;;5095512;28;20036;-62
2022/01/15 06:01:20;;;;;;;18.00;9.77;;;;;;;;;;5094949;28;20456;-60
2022/01/15 06:03:46;;;;;;;18.27;9.90;;;;;;;;;;5095684;28;20012;-61
2022/01/15 06:06:12;;;;;;;19.85;10.90;;;;;;;;;;5095103;28;20371;-60
2022/01/15 06:08:39;;;;;;;26.05;11.80;;;;;;;;;;5094466;28;20026;-59
2022/01/15 06:11:05;;;;;;;23.35;11.88;;;;;;;;;;5094894;28;20477;-60
2022/01/15 06:13:31;;;;;;;21.60;10.95;;;;;;;;;;5094603;28;20027;-60
2022/01/15 06:15:57;;;;;;;18.42;10.02;;;;;;;;;;5095751;28;20406;-60
2022/01/15 06:18:23;;;;;;;23.58;10.70;;;;;;;;;;5094715;28;20526;-61
2022/01/15 06:20:49;;;;;;;20.02;10.73;;;;;;;;;;5093858;28;20024;-62
2022/01/15 06:23:20;;;;;;;21.60;9.88;;;;;;;;;;5093750;28;20333;-64
2022/01/15 06:26:01;;;;;;;25.60;11.88;;;;;;;;;;5093630;28;20020;-66
2022/01/15 06:28:27;;;;;;;26.77;13.63;;;;;;;;;;5094054;28;20028;-62
2022/01/15 06:30:53;;;;;;;37.92;14.90;;;;;;;;;;5094797;28;20031;-61
2022/01/15 06:33:19;;;;;;;22.80;13.13;;;;;;;;;;5094526;28;20103;-60
2022/01/15 06:35:46;;;;;;;24.95;13.27;;;;;;;;;;5093221;28;20027;-61
2022/01/15 06:38:28;;;;;;;25.77;13.18;;;;;;;;;;5094660;28;20031;-61
2022/01/15 06:41:03;;;;;;;28.30;13.60;;;;;;;;;;5093960;28;20028;-61
2022/01/15 06:43:29;;;;;;;22.45;12.05;;;;;;;;;;5093958;28;20036;-61
2022/01/15 06:45:56;;;;;;;21.88;11.70;;;;;;;;;;5094374;28;20484;-61
2022/01/15 06:48:22;;;;;;;26.30;12.77;;;;;;;;;;5093812;28;20020;-62
2022/01/15 06:50:48;;;;;;;24.33;12.65;;;;;;;;;;5094436;28;20051;-61
2022/01/15 06:53:14;;;;;;;20.88;11.77;;;;;;;;;;5093571;28;20020;-60
2022/01/15 06:55:41;;;;;;;24.40;12.02;;;;;;;;;;5088767;28;20032;-61
2022/01/15 06:58:07;;;;;;;24.23;12.77;;;;;;;;;;5093489;28;20048;-60
2022/01/15 07:00:33;;;;;;;24.40;12.18;;;;;;;;;;5094298;28;20024;-61
2022/01/15 07:03:01;;;;;;;27.95;12.88;;;;;;;;;;5093636;28;20020;-60
2022/01/15 07:05:27;;;;;;;35.03;14.07;;;;;;;;;;5093749;28;20111;-61
2022/01/15 07:07:54;;;;;;;32.47;15.20;;;;;;;;;;5094826;28;20065;-61
2022/01/15 07:10:20;;;;;;;35.90;16.00;;;;;;;;;;5093920;28;20549;-62
2022/01/15 07:12:46;;;;;;;33.78;16.10;;;;;;;;;;5094047;28;20384;-60
2022/01/15 07:15:12;;;;;;;34.75;16.73;;;;;;;;;;5093749;28;20471;-61
2022/01/15 07:17:42;;;;;;;30.15;14.80;;;;;;;;;;5093603;28;20016;-61
2022/01/15 07:20:09;;;;;;;32.23;14.87;;;;;;;;;;5090932;28;20103;-60
2022/01/15 07:22:35;;;;;;;30.70;14.88;;;;;;;;;;5092757;28;20113;-61
2022/01/15 07:25:01;;;;;;;28.02;14.18;;;;;;;;;;5093434;28;20099;-60
2022/01/15 07:27:27;;;;;;;29.83;15.60;;;;;;;;;;5093841;28;20024;-61
2022/01/15 07:29:54;;;;;;;26.02;14.20;;;;;;;;;;5093502;28;20481;-61
2022/01/15 07:32:20;;;;;;;28.27;13.68;;;;;;;;;;5092290;28;20036;-61
2022/01/15 07:34:46;;;;;;;25.00;12.85;;;;;;;;;;5093114;28;20020;-61
2022/01/15 07:37:12;;;;;;;26.80;13.60;;;;;;;;;;5092112;28;20016;-62
2022/01/15 07:39:38;;;;;;;26.15;13.18;;;;;;;;;;5091703;28;20032;-61
2022/01/15 07:42:05;;;;;;;25.63;12.68;;;;;;;;;;5092661;28;20031;-62
2022/01/15 07:44:31;;;;;;;26.10;12.88;;;;;;;;;;5093062;28;20025;-61
2022/01/15 07:46:58;;;;;;;27.80;14.15;;;;;;;;;;5093452;28;20465;-63
2022/01/15 07:49:24;;;;;;;29.08;13.77;;;;;;;;;;5093441;28;20025;-62
2022/01/15 07:51:50;;;;;;;27.48;14.13;;;;;;;;;;5092598;28;20028;-62
2022/01/15 07:54:16;;;;;;;26.33;13.80;;;;;;;;;;5092649;28;20024;-61
2022/01/15 07:56:42;;;;;;;26.17;14.60;;;;;;;;;;5093165;28;20052;-61
2022/01/15 07:59:08;;;;;;;31.77;14.77;;;;;;;;;;5093171;28;20020;-61
2022/01/15 08:01:34;;;;;;;29.08;15.20;;;;;;;;;;5093353;28;20035;-60
2022/01/15 08:04:02;;;;;;;31.33;15.25;;;;;;;;;;5093570;28;20099;-61
2022/01/15 08:06:28;;;;;;;29.25;15.40;;;;;;;;;;5093210;28;20023;-60
2022/01/15 08:08:54;;;;;;;30.13;16.02;;;;;;;;;;5075401;28;20020;-61
2022/01/15 08:11:20;;;;;;;33.47;17.40;;;;;;;;;;5093182;28;20020;-62
2022/01/15 08:13:46;;;;;;;34.45;16.75;;;;;;;;;;5093139;28;20392;-62
2022/01/15 08:16:12;;;;;;;33.97;16.35;;;;;;;;;;5093738;28;20081;-61
2022/01/15 08:18:39;;;;;;;34.25;17.52;;;;;;;;;;5092950;28;20016;-62
2022/01/15 08:21:06;;;;;;;37.20;17.65;;;;;;;;;;5091538;28;20123;-61
2022/01/15 08:23:33;;;;;;;28.35;16.10;;;;;;;;;;5090997;28;20431;-61
2022/01/15 08:25:59;;;;;;;35.90;17.75;;;;;;;;;;5091565;28;20329;-62
2022/01/15 08:28:26;;;;;;;35.33;17.75;;;;;;;;;;5091164;28;20023;-62
2022/01/15 08:30:52;;;;;;;36.28;18.30;;;;;;;;;;5090886;28;20189;-61
2022/01/15 08:33:18;;;;;;;31.95;16.20;;;;;;;;;;5090912;28;20028;-62
2022/01/15 08:35:45;;;;;;;34.92;16.75;;;;;;;;;;5092582;28;20026;-62
2022/01/15 08:38:14;;;;;;;37.47;18.13;;;;;;;;;;5092754;28;20072;-65
2022/01/15 08:40:42;;;;;;;32.13;16.33;;;;;;;;;;5092360;28;20016;-61
2022/01/15 08:43:08;;;;;;;35.92;19.48;;;;;;;;;;5094027;28;20028;-59
2022/01/15 08:45:36;;;;;;;37.13;19.27;;;;;;;;;;5096549;28;20026;-61
2022/01/15 08:48:02;;;;;;;41.20;20.63;;;;;;;;;;5096416;28;20024;-62
2022/01/15 08:50:29;;;;;;;34.88;18.85;;;;;;;;;;5096762;28;20016;-61
2022/01/15 08:52:55;;;;;;;32.92;17.55;;;;;;;;;;5096687;28;20024;-61
2022/01/15 08:55:21;;;;;;;29.73;17.00;;;;;;;;;;5096047;28;20027;-62
2022/01/15 08:57:47;;;;;;;33.28;17.13;;;;;;;;;;5096195;28;20048;-61
2022/01/15 09:00:16;;;;;;;36.92;17.85;;;;;;;;;;5096301;28;20530;-62
2022/01/15 09:02:43;;;;;;;33.45;18.35;;;;;;;;;;5095641;28;20032;-62
2022/01/15 09:05:09;;;;;;;33.25;18.02;;;;;;;;;;5096260;28;20077;-61
2022/01/15 09:07:36;;;;;;;35.60;19.10;;;;;;;;;;5096283;28;20016;-62
2022/01/15 09:10:02;;;;;;;38.10;18.63;;;;;;;;;;5095993;28;20023;-59
2022/01/15 09:12:28;;;;;;;38.70;18.05;;;;;;;;;;5076682;28;20075;-61
2022/01/15 09:14:58;;;;;;;37.78;18.13;;;;;;;;;;5095484;28;20111;-62
2022/01/15 09:17:25;;;;;;;33.25;16.15;;;;;;;;;;5095742;28;20020;-62
2022/01/15 09:19:51;;;;;;;37.50;18.33;;;;;;;;;;5096039;28;20065;-61
2022/01/15 09:22:17;;;;;;;34.60;17.52;;;;;;;;;;5095576;28;20040;-61
2022/01/15 09:24:45;;;;;;;31.35;17.88;;;;;;;;;;5095049;28;20465;-62
2022/01/15 09:30:12;;;;;;;32.17;18.15;;;;;;;;;;5095772;28;20039;-62
2022/01/15 09:32:38;;;;;;;32.95;19.15;;;;;;;;;;5077890;28;20086;-62
2022/01/15 09:35:05;;;;;;;34.08;17.30;;;;;;;;;;5096297;28;20028;-61
2022/01/15 09:37:31;;;;;;;39.22;18.30;;;;;;;;;;5095078;28;20465;-61
2022/01/15 09:39:58;;;;;;;37.28;18.48;;;;;;;;;;5095439;28;20024;-61
2022/01/15 09:42:24;;;;;;;34.17;17.67;;;;;;;;;;5095695;28;20035;-61
2022/01/15 09:44:51;;;;;;;30.77;15.40;;;;;;;;;;5095478;28;20540;-61
2022/01/15 09:47:20;;;;;;;30.70;16.10;;;;;;;;;;5095233;28;20020;-60
2022/01/15 09:49:46;;;;;;;28.77;15.38;;;;;;;;;;5095314;28;20016;-61
2022/01/15 09:52:13;;;;;;;34.05;16.60;;;;;;;;;;5077208;28;20031;-60
2022/01/15 09:54:40;;;;;;;30.23;15.63;;;;;;;;;;5094289;28;20020;-58
2022/01/15 09:57:06;;;;;;;33.65;16.73;;;;;;;;;;5094616;28;20043;-64
2022/01/15 13:54:16;;;;;;;39.92;18.90;;;;;;;;;;5015698;28;20135;-52
2022/01/15 13:56:44;;;;;;;39.95;20.17;;;;;;;;;;5014887;28;20083;-51
2022/01/15 14:02:29;;;;;;;51.00;23.67;;;;;;;;;;5014770;28;20041;-51
2022/01/15 14:05:11;;;;;;;62.65;27.58;;;;;;;;;;5015518;28;20366;-54
2022/01/15 14:07:37;;;;;;;64.60;29.48;;;;;;;;;;5014977;28;20018;-50
2022/01/15 14:10:08;;;;;;;67.07;30.50;;;;;;;;;;5014688;28;20018;-51
2022/01/15 14:12:34;;;;;;;61.55;27.88;;;;;;;;;;5015437;28;20429;-51
2022/01/15 14:15:04;;;;;;;73.97;30.58;;;;;;;;;;5015145;28;20101;-50
2022/01/15 14:17:34;;;;;;;56.15;27.20;;;;;;;;;;5014483;28;20030;-51
2022/01/15 14:22:27;;;;;;;53.47;27.02;;;;;;;;;;5014040;28;20030;-55
2022/01/15 14:24:54;;;;;;;58.83;28.35;;;;;;;;;;5012822;28;20100;-52
2022/01/15 14:27:23;;;;;;;50.50;25.15;;;;;;;;;;5014633;28;20026;-52
2022/01/15 14:29:53;;;;;;;49.17;25.35;;;;;;;;;;5014786;28;20044;-52
2022/01/15 14:32:20;;;;;;;95.90;49.53;;;;;;;;;;5014061;28;20042;-53
2022/01/15 14:34:50;;;;;;;190.70;99.68;;;;;;;;;;5009577;28;20537;-57
2022/01/15 14:37:16;;;;;;;224.35;117.15;;;;;;;;;;5003292;28;20058;-54
2022/01/15 14:39:42;;;;;;;201.68;108.55;;;;;;;;;;5003119;28;20126;-50
2022/01/15 14:42:09;;;;;;;278.45;151.70;;;;;;;;;;4986678;28;20465;-54
2022/01/15 14:44:35;;;;;;;196.95;105.50;;;;;;;;;;5003963;28;20529;-50
2022/01/15 14:47:01;;;;;;;227.55;122.68;;;;;;;;;;5007650;28;20026;-54
2022/01/15 14:49:28;;;;;;;151.15;80.45;;;;;;;;;;5004605;28;20475;-54
2022/01/15 14:51:54;;;;;;;148.00;77.10;;;;;;;;;;5006678;28;20056;-54
2022/01/15 14:54:20;;;;;;;209.88;111.68;;;;;;;;;;5002194;28;20454;-54
2022/01/15 14:56:46;;;;;;;192.70;105.30;;;;;;;;;;5003885;28;20017;-56
2022/01/15 14:59:12;;;;;;;190.30;103.00;;;;;;;;;;5003844;28;20018;-54
2022/01/15 15:01:39;;;;;;;155.95;81.82;;;;;;;;;;5002118;28;20026;-53
2022/01/15 15:04:06;;;;;;;123.88;67.30;;;;;;;;;;5006221;28;20026;-51
2022/01/15 15:06:33;;;;;;;129.45;68.07;;;;;;;;;;5002008;28;20057;-49
2022/01/15 15:08:59;;;;;;;197.35;100.75;;;;;;;;;;5003238;28;20022;-49
2022/01/15 15:11:30;;;;;;;265.98;139.65;;;;;;;;;;4993836;28;20027;-52
2022/01/15 15:13:56;;;;;;;358.65;197.95;;;;;;;;;;4994377;28;20026;-50
2022/01/15 15:16:22;;;;;;;319.05;172.80;;;;;;;;;;5000373;28;20030;-51
2022/01/15 15:18:49;;;;;;;325.55;169.57;;;;;;;;;;5013049;28;20025;-58
2022/01/15 15:21:15;;;;;;;209.05;109.45;;;;;;;;;;5006689;28;20430;-51
2022/01/15 15:23:41;;;;;;;171.15;91.60;;;;;;;;;;5000985;28;20026;-55
2022/01/15 15:26:08;;;;;;;181.82;95.95;;;;;;;;;;5003871;28;20370;-52
2022/01/15 15:28:34;;;;;;;195.10;102.38;;;;;;;;;;5003562;28;20411;-52
2022/01/15 15:31:01;;;;;;;226.73;116.90;;;;;;;;;;5002082;28;20111;-54
2022/01/15 15:33:28;;;;;;;174.68;93.38;;;;;;;;;;5002498;28;20065;-52
2022/01/15 15:35:55;;;;;;;154.38;79.32;;;;;;;;;;5004079;28;20050;-52
2022/01/15 15:38:21;;;;;;;171.57;91.43;;;;;;;;;;5004064;28;20374;-52
2022/01/15 15:40:48;;;;;;;124.97;62.35;;;;;;;;;;5003872;28;20405;-55
2022/01/15 15:43:15;;;;;;;117.00;54.80;;;;;;;;;;5002160;28;20026;-51
2022/01/15 15:45:41;;;;;;;123.97;58.40;;;;;;;;;;5000958;28;20030;-51
2022/01/15 15:48:07;;;;;;;184.32;92.95;;;;;;;;;;5002354;28;20030;-55
2022/01/15 15:50:33;;;;;;;220.40;108.25;;;;;;;;;;5004467;28;20096;-62
2022/01/15 15:53:00;;;;;;;213.60;105.15;;;;;;;;;;5002869;28;20038;-62
2022/01/15 15:55:26;;;;;;;221.80;104.57;;;;;;;;;;5007820;28;20060;-64
2022/01/15 15:57:52;;;;;;;215.43;104.68;;;;;;;;;;5006525;28;20057;-63
2022/01/15 16:00:22;;;;;;;197.52;94.95;;;;;;;;;;5006080;28;20022;-62
2022/01/15 16:02:48;;;;;;;198.27;100.22;;;;;;;;;;5005357;28;20022;-62
2022/01/15 16:05:15;;;;;;;292.05;141.80;;;;;;;;;;5008210;28;20018;-62
2022/01/15 16:07:41;;;;;;;308.42;160.07;;;;;;;;;;5007005;28;20893;-63
2022/01/15 16:10:07;;;;;;;295.50;156.65;;;;;;;;;;5005418;28;20061;-61
2022/01/15 16:12:34;;;;;;;293.58;148.52;;;;;;;;;;5005070;28;20076;-63
2022/01/15 16:15:01;;;;;;;397.10;195.82;;;;;;;;;;5005322;28;20018;-63
2022/01/15 16:17:28;;;;;;;445.13;229.60;;;;;;;;;;5003644;28;20022;-64
2022/01/15 16:19:54;;;;;;;510.75;264.73;;;;;;;;;;5005881;28;20037;-63
2022/01/15 16:22:20;;;;;;;408.67;215.02;;;;;;;;;;5009026;28;20145;-63
2022/01/15 16:24:47;;;;;;;391.23;202.85;;;;;;;;;;5004112;28;20034;-62
2022/01/15 16:27:14;;;;;;;370.10;183.63;;;;;;;;;;5007456;28;20097;-63
2022/01/15 16:29:42;;;;;;;313.60;152.57;;;;;;;;;;5006690;28;20085;-64
2022/01/15 16:32:08;;;;;;;329.98;163.93;;;;;;;;;;5005424;28;20022;-63
2022/01/15 16:34:35;;;;;;;314.48;155.30;;;;;;;;;;5005265;28;20022;-62
2022/01/15 16:37:02;;;;;;;295.15;143.05;;;;;;;;;;5005010;28;20023;-61
2022/01/15 16:39:32;;;;;;;221.18;108.50;;;;;;;;;;5003956;28;20018;-63
2022/01/15 16:41:58;;;;;;;192.32;91.97;;;;;;;;;;5007159;28;20185;-62
2022/01/15 16:44:25;;;;;;;161.38;75.75;;;;;;;;;;4987001;28;20421;-63
2022/01/15 16:46:51;;;;;;;139.32;64.88;;;;;;;;;;5005748;28;20069;-62
2022/01/15 16:49:17;;;;;;;117.10;57.05;;;;;;;;;;5005741;28;20466;-62
2022/01/15 16:51:43;;;;;;;110.10;50.47;;;;;;;;;;5005095;28;20014;-62
2022/01/15 16:54:10;;;;;;;133.85;62.97;;;;;;;;;;5007175;28;20068;-64
2022/01/15 16:56:36;;;;;;;111.88;53.33;;;;;;;;;;5006128;28;20419;-64
2022/01/15 16:59:02;;;;;;;79.10;37.53;;;;;;;;;;5004451;28;20026;-63
2022/01/15 17:01:28;;;;;;;79.60;40.00;;;;;;;;;;5006965;28;20075;-62
2022/01/15 17:03:55;;;;;;;114.15;55.67;;;;;;;;;;5004750;28;20387;-64
2022/01/15 17:06:21;;;;;;;123.15;67.95;;;;;;;;;;5004709;28;20034;-62
2022/01/15 17:08:47;;;;;;;111.47;58.25;;;;;;;;;;5007077;28;20049;-64
2022/01/15 17:11:13;;;;;;;105.68;53.03;;;;;;;;;;5005009;28;20018;-63
2022/01/15 17:13:45;;;;;;;91.00;45.53;;;;;;;;;;5004831;28;20034;-64
2022/01/15 17:16:11;;;;;;;99.93;47.83;;;;;;;;;;5005298;28;20023;-66
2022/01/15 17:18:37;;;;;;;88.72;43.28;;;;;;;;;;4987850;28;20033;-63
2022/01/15 17:21:03;;;;;;;94.75;49.35;;;;;;;;;;5006772;28;20467;-64
2022/01/15 17:23:29;;;;;;;77.40;42.20;;;;;;;;;;5007034;28;20164;-64
2022/01/15 17:26:02;;;;;;;110.57;58.22;;;;;;;;;;5003335;28;20030;-62
2022/01/15 17:28:52;;;;;;;98.68;50.05;;;;;;;;;;4988743;28;20026;-65
2022/01/15 17:31:22;;;;;;;83.88;42.78;;;;;;;;;;4980574;28;20036;-62
2022/01/15 17:33:48;;;;;;;110.63;54.05;;;;;;;;;;5014902;28;20026;-62
2022/01/15 17:36:14;;;;;;;116.80;59.63;;;;;;;;;;5014750;28;20021;-63
2022/01/15 17:38:40;;;;;;;107.80;54.35;;;;;;;;;;5013812;28;20018;-63
2022/01/15 17:41:07;;;;;;;80.18;42.67;;;;;;;;;;5014253;28;20034;-63
2022/01/15 17:43:33;;;;;;;83.82;41.72;;;;;;;;;;5015330;28;20032;-64
2022/01/15 17:46:02;;;;;;;190.68;91.10;;;;;;;;;;5015961;28;20037;-62
2022/01/15 17:48:28;;;;;;;192.48;95.15;;;;;;;;;;5015438;28;20022;-64
2022/01/15 17:50:54;;;;;;;171.63;85.10;;;;;;;;;;5015609;28;20038;-61
2022/01/15 17:53:20;;;;;;;246.18;116.85;;;;;;;;;;5015585;28;20026;-63
2022/01/15 17:55:47;;;;;;;175.75;83.53;;;;;;;;;;5015730;28;20030;-60
2022/01/15 17:58:13;;;;;;;143.02;72.88;;;;;;;;;;5015929;28;20065;-62
2022/01/15 18:00:39;;;;;;;104.03;50.58;;;;;;;;;;5015058;28;20037;-64
2022/01/15 18:03:05;;;;;;;99.85;50.28;;;;;;;;;;5015037;28;20483;-64
2022/01/15 18:05:36;;;;;;;87.78;41.83;;;;;;;;;;5013893;28;20385;-63
2022/01/15 18:08:06;;;;;;;68.28;33.40;;;;;;;;;;5009810;28;20569;-63
2022/01/15 18:10:41;;;;;;;51.47;27.92;;;;;;;;;;4999534;28;20037;-66
2022/01/15 18:13:33;;;;;;;51.53;27.48;;;;;;;;;;5005566;28;20028;-62
2022/01/15 18:16:04;;;;;;;51.05;28.30;;;;;;;;;;5005843;28;20053;-63
2022/01/15 18:18:52;;;;;;;61.22;31.48;;;;;;;;;;5011767;28;20014;-64
2022/01/15 18:21:18;;;;;;;56.47;28.70;;;;;;;;;;4994323;28;20093;-65
2022/01/15 18:23:44;;;;;;;95.63;46.65;;;;;;;;;;5008802;28;20084;-63
2022/01/15 18:26:28;;;;;;;146.57;71.10;;;;;;;;;;5004304;28;20109;-65
2022/01/15 18:28:58;;;;;;;160.38;79.28;;;;;;;;;;4985569;28;20041;-64
2022/01/15 18:31:24;;;;;;;186.88;90.32;;;;;;;;;;4993754;28;20034;-61
2022/01/15 18:33:52;;;;;;;194.23;95.68;;;;;;;;;;4999839;28;20026;-61
2022/01/15 18:36:22;;;;;;;231.38;115.38;;;;;;;;;;5004552;28;20018;-64
2022/01/15 18:38:56;;;;;;;257.60;123.97;;;;;;;;;;5003603;28;20022;-63
2022/01/15 18:41:23;;;;;;;264.83;127.07;;;;;;;;;;4997661;28;20258;-62